Time;durP1;ratioP1;P1;durP2;ratioP2;P2;SDS_P1;SDS_P2;PMS_P1;PMS_P2;Temp;Humidity;BMP_temperature;BMP_pressure;BME280_temperature;BME280_humidity;BME280_pressure;Samples;Min_cycle;Max_cycle;Signal;HPM_P1;HPM_P2
2022/11/11 00:01:16;;;;;;;16.42;8.80;;;11.40;99.90;;;;;;5054838;28;20064;-67
2022/11/11 00:03:42;;;;;;;17.33;9.38;;;11.30;99.90;;;;;;5070767;28;20090;-67
2022/11/11 00:06:14;;;;;;;17.42;9.27;;;11.40;99.90;;;;;;5088998;28;20040;-67
2022/11/11 00:08:40;;;;;;;21.77;9.45;;;11.40;99.90;;;;;;5070715;28;20043;-67
2022/11/11 00:11:11;;;;;;;15.75;8.52;;;11.40;99.90;;;;;;5070753;28;20040;-67
2022/11/11 00:13:38;;;;;;;20.58;9.50;;;11.40;99.90;;;;;;5087901;28;20455;-67
2022/11/11 00:16:13;;;;;;;13.38;8.50;;;11.40;99.90;;;;;;5091369;28;20119;-67
2022/11/11 00:27:20;;;;;;;12.20;8.18;;;11.50;99.90;;;;;;5091184;28;20048;-67
2022/11/11 00:29:46;;;;;;;13.88;8.32;;;11.50;99.90;;;;;;5090972;28;20056;-67
2022/11/11 00:32:21;;;;;;;14.15;8.45;;;11.50;99.90;;;;;;5073228;28;20032;-67
2022/11/11 00:37:33;;;;;;;18.20;9.57;;;11.50;99.90;;;;;;5072850;28;20040;-67
2022/11/11 00:39:59;;;;;;;14.23;8.95;;;11.50;99.90;;;;;;5091119;28;20063;-68
2022/11/11 00:42:25;;;;;;;16.60;8.50;;;11.50;99.90;;;;;;5072702;28;20501;-67
2022/11/11 00:44:51;;;;;;;20.05;9.80;;;11.50;99.90;;;;;;5072874;28;20044;-67
2022/11/11 00:53:03;;;;;;;16.45;8.98;;;11.40;99.90;;;;;;5034526;28;20048;-67
2022/11/11 00:55:29;;;;;;;17.17;9.35;;;11.40;99.90;;;;;;5070447;28;20036;-67
2022/11/11 00:57:54;;;;;;;16.92;9.45;;;11.40;99.90;;;;;;5056149;28;20040;-67
2022/11/11 01:00:20;;;;;;;20.85;9.98;;;11.40;99.90;;;;;;5090900;28;20036;-67
2022/11/11 01:02:46;;;;;;;15.60;9.52;;;11.40;99.90;;;;;;5090687;28;20470;-68
2022/11/11 01:05:12;;;;;;;16.65;9.13;;;11.40;99.90;;;;;;5090740;28;20493;-67
2022/11/11 01:07:37;;;;;;;18.63;9.52;;;11.40;99.90;;;;;;5090318;28;20031;-67
2022/11/11 01:10:03;;;;;;;20.73;10.32;;;11.40;99.90;;;;;;5092912;28;20044;-67
2022/11/11 01:12:29;;;;;;;16.23;9.30;;;11.40;99.90;;;;;;5076445;28;20166;-67
2022/11/11 01:14:55;;;;;;;17.27;9.32;;;11.40;99.90;;;;;;5076157;28;20118;-67
2022/11/11 01:17:20;;;;;;;16.55;9.00;;;11.40;99.90;;;;;;5076341;28;20040;-67
2022/11/11 01:19:46;;;;;;;15.93;8.88;;;11.40;99.90;;;;;;5094145;28;20500;-67
2022/11/11 01:22:12;;;;;;;16.02;9.02;;;11.40;99.90;;;;;;5059463;28;20039;-67
2022/11/11 01:24:38;;;;;;;18.65;10.98;;;11.40;99.90;;;;;;5074012;28;20499;-67
2022/11/11 01:27:03;;;;;;;21.58;10.45;;;11.30;99.90;;;;;;5076153;28;20578;-67
2022/11/11 01:29:29;;;;;;;18.90;10.63;;;11.30;99.90;;;;;;5075759;28;20478;-67
2022/11/11 01:31:55;;;;;;;18.27;10.50;;;11.30;99.90;;;;;;5076059;28;20043;-68
2022/11/11 01:34:21;;;;;;;15.15;10.00;;;11.30;99.90;;;;;;5076107;28;20146;-67
2022/11/11 01:36:46;;;;;;;16.38;10.18;;;11.30;99.90;;;;;;5075686;28;20450;-67
2022/11/11 01:39:12;;;;;;;18.73;9.90;;;11.30;99.90;;;;;;5075630;28;20035;-66
2022/11/11 01:41:38;;;;;;;16.02;9.95;;;11.20;99.90;;;;;;5094028;28;20086;-67
2022/11/11 01:44:09;;;;;;;15.38;9.25;;;11.20;99.90;;;;;;5075901;28;20611;-67
2022/11/11 01:46:40;;;;;;;20.00;10.35;;;11.20;99.90;;;;;;5075834;28;20101;-66
2022/11/11 01:49:18;;;;;;;20.25;9.98;;;11.10;99.90;;;;;;5075446;28;20386;-67
2022/11/11 01:51:56;;;;;;;20.35;12.23;;;11.10;99.90;;;;;;5093621;28;20036;-67
2022/11/11 01:54:28;;;;;;;17.92;11.55;;;11.00;99.90;;;;;;5075442;28;20038;-67
2022/11/11 01:57:01;;;;;;;19.23;12.07;;;10.90;99.90;;;;;;5074050;28;20056;-67
2022/11/11 01:59:27;;;;;;;22.42;12.80;;;10.90;99.90;;;;;;5075517;28;20386;-67
2022/11/11 02:01:53;;;;;;;22.55;13.70;;;10.80;99.90;;;;;;5093644;28;20115;-66
2022/11/11 02:07:07;;;;;;;28.77;15.68;;;10.70;99.90;;;;;;5075334;28;20048;-67
2022/11/11 02:09:35;;;;;;;26.65;15.02;;;10.60;99.90;;;;;;5058501;28;20056;-67
2022/11/11 02:14:53;;;;;;;23.92;14.77;;;10.60;99.90;;;;;;5093501;28;20040;-67
2022/11/11 02:17:19;;;;;;;24.80;15.13;;;10.60;99.90;;;;;;5075343;28;20504;-66
2022/11/11 02:19:56;;;;;;;26.98;16.70;;;10.60;99.90;;;;;;5093025;28;20036;-66
2022/11/11 02:22:36;;;;;;;24.38;16.35;;;10.60;99.90;;;;;;5092572;28;20513;-67
2022/11/11 02:25:04;;;;;;;28.02;17.58;;;10.60;99.90;;;;;;5072857;28;20546;-66
2022/11/11 02:27:33;;;;;;;35.22;17.90;;;10.60;99.90;;;;;;5075107;28;20044;-67
2022/11/11 02:30:03;;;;;;;23.40;15.68;;;10.60;99.90;;;;;;5074786;28;20489;-66
2022/11/11 02:32:29;;;;;;;28.80;19.40;;;10.60;99.90;;;;;;5074749;28;20044;-67
2022/11/11 02:34:54;;;;;;;28.58;17.30;;;10.60;99.90;;;;;;5074704;28;20035;-67
2022/11/11 02:37:23;;;;;;;30.83;16.98;;;10.60;99.90;;;;;;5074515;28;20036;-66
2022/11/11 02:39:51;;;;;;;32.28;19.00;;;10.60;99.90;;;;;;5093024;28;20044;-66
2022/11/11 02:42:19;;;;;;;31.85;18.08;;;10.70;99.90;;;;;;5074897;28;20123;-64
2022/11/11 02:44:45;;;;;;;28.08;18.02;;;10.60;99.90;;;;;;5074702;28;20048;-65
2022/11/11 02:47:11;;;;;;;30.00;18.08;;;10.70;99.90;;;;;;5092582;28;20504;-65
2022/11/11 02:49:37;;;;;;;27.80;17.95;;;10.60;99.90;;;;;;5074333;28;20044;-65
2022/11/11 02:52:03;;;;;;;28.23;19.05;;;10.60;99.90;;;;;;5092702;28;20037;-65
2022/11/11 02:54:28;;;;;;;26.70;17.83;;;10.70;99.90;;;;;;5073581;28;20043;-65
2022/11/11 02:57:06;;;;;;;29.00;18.75;;;10.70;99.90;;;;;;5072940;28;20135;-65
2022/11/11 02:59:34;;;;;;;29.50;18.70;;;10.70;99.90;;;;;;5074143;28;20074;-65
2022/11/11 03:01:59;;;;;;;32.90;20.02;;;10.70;99.90;;;;;;5092266;28;20038;-65
2022/11/11 03:04:25;;;;;;;30.23;19.33;;;10.70;99.90;;;;;;5092553;28;20040;-65
2022/11/11 03:06:51;;;;;;;31.55;18.85;;;10.70;99.90;;;;;;5074071;28;20044;-65
2022/11/11 03:09:17;;;;;;;31.55;19.55;;;10.70;99.90;;;;;;5074022;28;20051;-65
2022/11/11 03:11:42;;;;;;;35.83;19.70;;;10.70;99.90;;;;;;5092310;28;20405;-65
2022/11/11 03:14:08;;;;;;;30.75;20.88;;;10.70;99.90;;;;;;5074165;28;20062;-65
2022/11/11 03:19:18;;;;;;;31.27;19.52;;;10.60;99.90;;;;;;5092228;28;20044;-65
2022/11/11 03:21:44;;;;;;;30.85;19.35;;;10.60;99.90;;;;;;5073734;28;20650;-65
2022/11/11 03:24:10;;;;;;;29.88;18.85;;;10.60;99.90;;;;;;5092066;28;20036;-65
2022/11/11 03:26:37;;;;;;;29.95;19.27;;;10.60;99.90;;;;;;5089681;28;20449;-65
2022/11/11 03:29:04;;;;;;;29.08;19.92;;;10.60;99.90;;;;;;5091828;28;20039;-65
2022/11/11 03:31:29;;;;;;;28.70;20.25;;;10.60;99.90;;;;;;5091631;28;20466;-65
2022/11/11 03:34:16;;;;;;;34.33;20.95;;;10.60;99.90;;;;;;5072834;28;20050;-65
2022/11/11 03:39:25;;;;;;;37.88;21.92;;;10.50;99.90;;;;;;5073815;28;20379;-65
2022/11/11 03:41:50;;;;;;;32.80;21.80;;;10.50;99.90;;;;;;5073476;28;20047;-65
2022/11/11 03:44:16;;;;;;;35.42;21.98;;;10.50;99.90;;;;;;5073805;28;20075;-65
2022/11/11 03:46:42;;;;;;;37.83;23.20;;;10.50;99.90;;;;;;5091405;28;20051;-65
2022/11/11 03:49:08;;;;;;;37.95;22.05;;;10.50;99.90;;;;;;5073258;28;20048;-65
2022/11/11 03:51:33;;;;;;;30.90;20.85;;;10.50;99.90;;;;;;5073444;28;20039;-65
2022/11/11 03:53:59;;;;;;;33.05;22.30;;;10.50;99.90;;;;;;5091594;28;20166;-65
2022/11/11 03:56:25;;;;;;;33.50;21.60;;;10.50;99.90;;;;;;5070954;28;20044;-65
2022/11/11 03:58:50;;;;;;;35.53;19.45;;;10.50;99.90;;;;;;5073206;28;20040;-65
2022/11/11 04:10:21;;;;;;;32.53;22.02;;;10.60;99.90;;;;;;5091389;28;20098;-65
2022/11/11 04:12:15;;;;;;;34.50;21.13;;;10.60;99.90;;;;;;5073109;28;20509;-65
2022/11/11 04:17:38;;;;;;;34.63;21.10;;;10.60;99.90;;;;;;5056616;28;20424;-64
2022/11/11 04:22:52;;;;;;;33.75;21.58;;;10.60;99.90;;;;;;5091239;28;20043;-65
2022/11/11 04:30:46;;;;;;;33.90;21.77;;;10.50;99.90;;;;;;5072914;28;20056;-64
2022/11/11 04:33:12;;;;;;;36.45;23.45;;;10.40;99.90;;;;;;5072880;28;20043;-64
2022/11/11 04:35:38;;;;;;;33.55;21.48;;;10.40;99.90;;;;;;5073357;28;20173;-64
2022/11/11 04:41:02;;;;;;;36.17;21.70;;;10.40;99.90;;;;;;5072924;28;20048;-65
2022/11/11 04:43:29;;;;;;;37.10;23.25;;;10.40;99.90;;;;;;5091107;28;20367;-65
2022/11/11 04:46:00;;;;;;;39.45;22.27;;;10.40;99.90;;;;;;5094726;28;20042;-65
2022/11/11 04:48:26;;;;;;;37.58;22.88;;;10.30;99.90;;;;;;5076774;28;20500;-65
2022/11/11 04:50:52;;;;;;;41.17;22.75;;;10.30;99.90;;;;;;5094647;28;20055;-65
2022/11/11 04:53:18;;;;;;;35.58;23.50;;;10.40;99.90;;;;;;5060293;28;20043;-65
2022/11/11 04:58:31;;;;;;;32.60;21.50;;;10.40;99.90;;;;;;5094653;28;20048;-64
2022/11/11 05:00:57;;;;;;;39.30;23.00;;;10.50;99.90;;;;;;5058928;28;20037;-65
2022/11/11 05:03:23;;;;;;;38.28;21.48;;;10.60;99.90;;;;;;5074350;28;20047;-65
2022/11/11 05:08:57;;;;;;;39.17;22.17;;;10.60;99.90;;;;;;5056243;28;20053;-64
2022/11/11 05:11:27;;;;;;;36.90;22.73;;;10.70;99.90;;;;;;5056305;28;20043;-64
2022/11/11 05:22:20;;;;;;;34.50;22.85;;;10.80;99.90;;;;;;5074204;28;20052;-65
2022/11/11 05:27:30;;;;;;;35.95;22.75;;;10.70;99.90;;;;;;5055972;28;20119;-65
2022/11/11 05:29:56;;;;;;;32.35;19.42;;;10.80;99.90;;;;;;5055794;28;20166;-65
2022/11/11 05:32:22;;;;;;;37.35;21.73;;;10.80;99.90;;;;;;5055825;28;20055;-65
2022/11/11 05:34:48;;;;;;;39.50;23.17;;;10.80;99.90;;;;;;5056023;28;20063;-64
2022/11/11 05:37:15;;;;;;;35.20;22.05;;;10.80;99.90;;;;;;5055598;28;20490;-64
2022/11/11 05:39:40;;;;;;;43.45;22.58;;;10.80;99.90;;;;;;5055656;28;20105;-64
2022/11/11 05:42:06;;;;;;;33.03;21.70;;;10.80;99.90;;;;;;5038954;28;20048;-64
2022/11/11 05:44:32;;;;;;;37.60;21.38;;;10.80;99.90;;;;;;5055823;28;20068;-65
2022/11/11 05:46:58;;;;;;;40.10;23.42;;;10.80;99.90;;;;;;5038884;28;20503;-65
2022/11/11 05:49:24;;;;;;;37.53;23.95;;;10.80;99.90;;;;;;5055702;28;20099;-65
2022/11/11 05:51:50;;;;;;;34.03;21.95;;;10.80;99.90;;;;;;5055728;28;20449;-65
2022/11/11 05:54:16;;;;;;;37.47;23.65;;;10.80;99.90;;;;;;5055662;28;20413;-65
2022/11/11 05:56:42;;;;;;;38.95;22.55;;;10.80;99.90;;;;;;5048964;28;20053;-65
2022/11/11 05:59:08;;;;;;;40.90;24.88;;;10.80;99.90;;;;;;5071980;28;20106;-66
2022/11/11 06:01:35;;;;;;;39.55;24.33;;;10.80;99.90;;;;;;5071791;28;20044;-67
2022/11/11 06:04:01;;;;;;;39.17;24.30;;;10.80;99.90;;;;;;5073271;28;20044;-68
2022/11/11 06:06:27;;;;;;;38.65;23.92;;;10.80;99.90;;;;;;5075242;28;20040;-66
2022/11/11 06:08:53;;;;;;;39.83;24.48;;;10.70;99.90;;;;;;5093443;28;20098;-66
2022/11/11 06:11:19;;;;;;;37.40;23.73;;;10.80;99.90;;;;;;5075185;28;20032;-66
2022/11/11 06:13:44;;;;;;;44.22;25.65;;;10.70;99.90;;;;;;5075089;28;20048;-66
2022/11/11 06:16:10;;;;;;;35.28;21.95;;;10.70;99.90;;;;;;5093176;28;20036;-66
2022/11/11 06:18:36;;;;;;;41.75;26.15;;;10.80;99.90;;;;;;5075322;28;20036;-66
2022/11/11 06:21:01;;;;;;;33.22;20.98;;;10.70;99.90;;;;;;5093091;28;20123;-66
2022/11/11 06:23:28;;;;;;;40.20;24.40;;;10.70;99.90;;;;;;5074944;28;20048;-66
2022/11/11 06:26:13;;;;;;;35.58;22.67;;;10.70;99.90;;;;;;5090851;28;20047;-66
2022/11/11 06:28:53;;;;;;;40.00;23.85;;;10.70;99.90;;;;;;5092916;28;20658;-66
2022/11/11 06:31:24;;;;;;;38.00;23.73;;;10.70;99.90;;;;;;5093154;28;20050;-66
2022/11/11 06:33:50;;;;;;;36.42;22.52;;;10.70;99.90;;;;;;5092973;28;20043;-66
2022/11/11 06:36:18;;;;;;;40.20;24.63;;;10.70;99.90;;;;;;5092922;28;20032;-66
2022/11/11 06:38:44;;;;;;;38.03;22.00;;;10.70;99.90;;;;;;5074519;28;20040;-66
2022/11/11 06:41:14;;;;;;;36.42;22.35;;;10.70;99.90;;;;;;5074522;28;20072;-66
2022/11/11 06:43:41;;;;;;;38.88;22.92;;;10.70;99.90;;;;;;5092696;28;20036;-66
2022/11/11 06:46:21;;;;;;;42.38;25.27;;;10.70;99.90;;;;;;5057927;28;20097;-67
2022/11/11 06:48:47;;;;;;;39.53;23.10;;;10.70;99.90;;;;;;5092529;28;20032;-67
2022/11/11 06:51:13;;;;;;;35.70;22.33;;;10.70;99.90;;;;;;5074444;28;20070;-67
2022/11/11 06:53:39;;;;;;;40.03;22.75;;;10.70;99.90;;;;;;5074329;28;20115;-67
2022/11/11 06:56:06;;;;;;;38.65;24.38;;;10.70;99.90;;;;;;5073381;28;20485;-67
2022/11/11 06:58:32;;;;;;;40.08;24.02;;;10.70;99.90;;;;;;5092380;28;20105;-67
2022/11/11 07:00:58;;;;;;;49.28;27.00;;;10.70;99.90;;;;;;5092350;28;20048;-67
2022/11/11 07:03:24;;;;;;;38.25;23.92;;;10.70;99.90;;;;;;5092589;28;20058;-67
2022/11/11 07:05:50;;;;;;;39.78;24.48;;;10.70;99.90;;;;;;5074487;28;20427;-67
2022/11/11 07:08:17;;;;;;;41.40;23.25;;;10.70;99.90;;;;;;5074093;28;20036;-67
2022/11/11 07:10:47;;;;;;;43.45;23.40;;;10.70;99.90;;;;;;5092211;28;20486;-67
2022/11/11 07:13:14;;;;;;;42.10;25.15;;;10.70;99.90;;;;;;5073731;28;20051;-68
2022/11/11 07:15:42;;;;;;;40.92;24.52;;;10.70;99.90;;;;;;5057380;28;20067;-67
2022/11/11 07:18:08;;;;;;;41.60;23.90;;;10.70;99.90;;;;;;5092245;28;20032;-67
2022/11/11 07:20:34;;;;;;;41.50;23.63;;;10.70;99.90;;;;;;5073890;28;20046;-68
2022/11/11 07:23:00;;;;;;;43.83;24.40;;;10.70;99.90;;;;;;5073621;28;20126;-67
2022/11/11 07:25:25;;;;;;;38.35;23.40;;;10.70;99.90;;;;;;5071615;28;20039;-67
2022/11/11 07:27:51;;;;;;;39.72;24.45;;;10.70;99.90;;;;;;5092081;28;20039;-67
2022/11/11 07:30:18;;;;;;;38.13;22.67;;;10.70;99.90;;;;;;5073825;28;20046;-67
2022/11/11 07:32:48;;;;;;;38.45;23.15;;;10.70;99.90;;;;;;5091959;28;20111;-67
2022/11/11 07:35:15;;;;;;;35.50;24.08;;;10.70;99.90;;;;;;5091919;28;20392;-68
2022/11/11 07:37:41;;;;;;;38.22;22.90;;;10.70;99.90;;;;;;5091766;28;20036;-67
2022/11/11 07:40:09;;;;;;;32.10;20.75;;;10.70;99.90;;;;;;5073573;28;20104;-67
2022/11/11 07:42:38;;;;;;;35.88;22.40;;;10.70;99.90;;;;;;5091934;28;20115;-68
2022/11/11 07:45:05;;;;;;;39.50;22.00;;;10.70;99.90;;;;;;5073451;28;20040;-67
2022/11/11 07:47:33;;;;;;;36.78;22.80;;;10.70;99.90;;;;;;5073307;28;20036;-67
2022/11/11 07:49:59;;;;;;;37.85;23.05;;;10.70;99.90;;;;;;5073207;28;20047;-67
2022/11/11 07:52:25;;;;;;;37.95;22.15;;;10.70;99.90;;;;;;5073144;28;20076;-67
2022/11/11 07:54:51;;;;;;;37.55;23.65;;;10.70;99.90;;;;;;5071197;28;20083;-67
2022/11/11 07:57:17;;;;;;;34.67;23.10;;;10.70;99.90;;;;;;5082822;28;20055;-67
2022/11/11 07:59:42;;;;;;;44.60;25.50;;;10.60;99.90;;;;;;5091514;28;20478;-67
2022/11/11 08:02:12;;;;;;;37.70;22.90;;;10.60;99.90;;;;;;5090070;28;20040;-67
2022/11/11 08:04:38;;;;;;;34.85;22.90;;;10.60;99.90;;;;;;5091504;28;20052;-67
2022/11/11 08:07:04;;;;;;;34.20;21.77;;;10.60;99.90;;;;;;5089856;28;20393;-67
2022/11/11 08:09:29;;;;;;;38.45;22.75;;;10.60;99.90;;;;;;5090139;28;20032;-67
2022/11/11 08:14:39;;;;;;;34.30;21.45;;;10.60;99.90;;;;;;5091372;28;20036;-66
2022/11/11 08:17:05;;;;;;;32.50;21.00;;;10.70;99.90;;;;;;5073420;28;20119;-67
2022/11/11 08:19:31;;;;;;;35.75;22.83;;;10.60;99.90;;;;;;5091400;28;20466;-67
2022/11/11 08:21:57;;;;;;;33.83;21.05;;;10.70;99.90;;;;;;5095737;28;20044;-67
2022/11/11 08:24:22;;;;;;;33.83;21.33;;;10.70;99.90;;;;;;5094077;28;20429;-67
2022/11/11 08:26:49;;;;;;;32.33;21.02;;;10.70;99.90;;;;;;5091889;28;20047;-67
2022/11/11 08:29:15;;;;;;;31.42;20.05;;;10.70;99.90;;;;;;5075743;28;20125;-67
2022/11/11 08:31:40;;;;;;;34.65;19.77;;;10.70;99.90;;;;;;5074889;28;20087;-67
2022/11/11 08:34:06;;;;;;;34.20;20.83;;;10.70;99.90;;;;;;5074882;28;20047;-67
2022/11/11 08:36:32;;;;;;;32.13;22.95;;;10.70;99.90;;;;;;5057025;28;20117;-67
2022/11/11 08:38:58;;;;;;;29.60;20.92;;;10.80;99.90;;;;;;5056909;28;20062;-67
2022/11/11 08:41:24;;;;;;;28.35;19.80;;;10.70;99.90;;;;;;5057154;28;20048;-67
2022/11/11 08:43:54;;;;;;;32.10;18.80;;;10.80;99.90;;;;;;5056960;28;20036;-68
2022/11/11 08:46:20;;;;;;;27.50;18.42;;;10.70;99.90;;;;;;5074437;28;20044;-68
2022/11/11 08:48:46;;;;;;;32.72;18.88;;;10.80;99.90;;;;;;5056711;28;20111;-67
2022/11/11 08:51:13;;;;;;;29.58;19.08;;;10.70;99.90;;;;;;5104492;28;20063;-67
2022/11/11 08:53:39;;;;;;;31.52;19.80;;;10.70;99.90;;;;;;5097226;28;20526;-67
2022/11/11 08:56:05;;;;;;;32.88;20.15;;;10.70;99.90;;;;;;5091738;28;20064;-67
2022/11/11 08:58:31;;;;;;;37.85;22.70;;;10.70;99.90;;;;;;5076534;28;20048;-66
2022/11/11 09:00:57;;;;;;;33.08;21.42;;;10.70;99.90;;;;;;5076378;28;20043;-67
2022/11/11 09:03:23;;;;;;;35.15;21.08;;;10.70;99.90;;;;;;5068829;28;20051;-68
2022/11/11 09:05:49;;;;;;;31.83;20.63;;;10.80;99.90;;;;;;5056623;28;20079;-68
2022/11/11 09:08:15;;;;;;;31.60;20.25;;;10.70;99.90;;;;;;5056684;28;20417;-68
2022/11/11 09:10:41;;;;;;;28.70;19.30;;;10.70;99.90;;;;;;5074327;28;20045;-67
2022/11/11 09:13:07;;;;;;;30.25;20.00;;;10.70;99.90;;;;;;5074262;28;20120;-67
2022/11/11 09:15:34;;;;;;;30.95;19.58;;;10.80;99.90;;;;;;5074149;28;20037;-67
2022/11/11 09:18:00;;;;;;;34.60;21.00;;;10.80;99.90;;;;;;5039156;28;20679;-67
2022/11/11 09:20:26;;;;;;;30.77;19.10;;;10.80;99.90;;;;;;5055044;28;20044;-68
2022/11/11 09:22:52;;;;;;;32.05;19.23;;;10.80;99.90;;;;;;5071116;28;20069;-68
2022/11/11 09:25:18;;;;;;;39.83;20.17;;;10.90;99.90;;;;;;5074803;28;20040;-67
2022/11/11 09:27:56;;;;;;;34.80;21.65;;;10.90;99.90;;;;;;5095242;28;20047;-67
2022/11/11 09:30:24;;;;;;;28.45;18.63;;;10.80;99.90;;;;;;5094555;28;20490;-68
2022/11/11 09:32:51;;;;;;;30.33;19.10;;;10.90;99.90;;;;;;5062924;28;20048;-67
2022/11/11 09:35:17;;;;;;;30.20;19.73;;;10.90;99.90;;;;;;5073573;28;20055;-67
2022/11/11 09:37:57;;;;;;;32.15;20.08;;;10.90;99.90;;;;;;5084399;28;20729;-67
2022/11/11 09:40:26;;;;;;;28.70;19.38;;;10.90;99.90;;;;;;5069250;28;20044;-67
2022/11/11 09:43:19;;;;;;;30.48;19.67;;;10.90;99.90;;;;;;5093684;28;20387;-67
2022/11/11 09:45:56;;;;;;;30.42;19.35;;;11.00;99.90;;;;;;5074335;28;20071;-67
2022/11/11 09:48:25;;;;;;;35.65;19.80;;;11.00;99.90;;;;;;5075044;28;20039;-67
2022/11/11 09:50:57;;;;;;;28.63;18.73;;;11.00;99.90;;;;;;5075677;28;20047;-67
2022/11/11 09:53:37;;;;;;;26.95;18.55;;;11.00;99.90;;;;;;5064077;28;20135;-67
2022/11/11 09:56:07;;;;;;;30.30;19.10;;;11.00;99.90;;;;;;5057761;28;20036;-68
2022/11/11 09:58:36;;;;;;;;;;;11.00;99.90;;;;;;5075758;28;20112;-67
2022/11/11 10:01:17;;;;;;;28.67;19.38;;;11.00;99.90;;;;;;5069267;28;19928;-68
2022/11/11 10:03:49;;;;;;;31.08;19.25;;;11.00;99.90;;;;;;5066710;28;20036;-67
2022/11/11 10:06:24;;;;;;;25.20;18.23;;;11.00;99.90;;;;;;5052337;28;20497;-68
2022/11/11 10:09:02;;;;;;;27.95;18.77;;;11.10;99.90;;;;;;5076262;28;20042;-68
2022/11/11 10:12:00;;;;;;;28.30;19.67;;;11.10;99.90;;;;;;5093982;28;20501;-69
2022/11/11 10:14:38;;;;;;;25.67;17.98;;;11.10;99.90;;;;;;5040181;28;20040;-68
2022/11/11 10:17:38;;;;;;;27.52;17.63;;;11.20;99.90;;;;;;5055826;28;20069;-68
2022/11/11 10:20:14;;;;;;;28.13;17.80;;;11.10;99.90;;;;;;5039794;28;20531;-67
2022/11/11 10:22:42;;;;;;;31.38;19.00;;;11.20;99.90;;;;;;5072900;28;20167;-67
2022/11/11 10:25:18;;;;;;;24.27;16.98;;;11.20;99.90;;;;;;5052978;28;20044;-67
2022/11/11 10:27:52;;;;;;;29.10;18.05;;;11.20;99.90;;;;;;5072991;28;20029;-66
2022/11/11 10:30:32;;;;;;;25.40;17.30;;;11.20;99.90;;;;;;5024555;28;20052;-66
2022/11/11 10:33:10;;;;;;;25.02;16.88;;;11.30;99.90;;;;;;5067974;28;20471;-67
2022/11/11 10:35:50;;;;;;;25.00;17.52;;;11.30;99.90;;;;;;5037479;28;20032;-67
2022/11/11 10:38:47;;;;;;;27.20;17.67;;;11.30;99.90;;;;;;5051974;28;20047;-67
2022/11/11 10:41:31;;;;;;;24.98;16.77;;;11.40;99.90;;;;;;5056187;28;20040;-66
2022/11/11 10:44:35;;;;;;;29.48;17.50;;;11.40;99.90;;;;;;5065551;28;20040;-66
2022/11/11 10:47:38;;;;;;;24.92;15.65;;;11.40;99.90;;;;;;5050683;28;20135;-65
2022/11/11 10:50:14;;;;;;;24.10;16.15;;;11.40;99.90;;;;;;5036901;28;20090;-66
2022/11/11 10:53:10;;;;;;;26.63;16.98;;;11.50;99.90;;;;;;5049760;28;20036;-66
2022/11/11 10:56:01;;;;;;;24.13;16.77;;;11.50;99.90;;;;;;5047939;28;20032;-66
2022/11/11 10:58:53;;;;;;;21.35;15.63;;;11.50;99.90;;;;;;5053293;28;20079;-66
2022/11/11 11:01:58;;;;;;;23.50;15.57;;;11.50;99.90;;;;;;5067385;28;20032;-66
2022/11/11 11:04:54;;;;;;;22.55;15.18;;;11.50;99.90;;;;;;5034903;28;20464;-66
2022/11/11 11:07:46;;;;;;;24.50;15.73;;;11.50;99.90;;;;;;5068027;28;20033;-66
2022/11/11 11:10:30;;;;;;;28.10;15.77;;;11.60;99.90;;;;;;5071326;28;20474;-67
2022/11/11 11:13:21;;;;;;;22.23;16.50;;;11.60;99.90;;;;;;5035056;28;20036;-67
2022/11/11 11:16:11;;;;;;;22.33;15.05;;;11.60;99.90;;;;;;5068858;28;20040;-68
2022/11/11 11:18:43;;;;;;;23.33;15.85;;;11.70;99.90;;;;;;5066721;28;20077;-67
2022/11/11 11:21:22;;;;;;;26.58;16.60;;;11.70;99.90;;;;;;5049130;28;20041;-67
2022/11/11 11:23:49;;;;;;;23.17;16.63;;;11.70;99.90;;;;;;5053166;28;20056;-66
2022/11/11 11:26:29;;;;;;;20.67;15.27;;;11.70;99.90;;;;;;5051241;28;20040;-67
2022/11/11 11:29:02;;;;;;;23.27;15.65;;;11.70;99.90;;;;;;5069753;28;20032;-67
2022/11/11 11:32:00;;;;;;;;;;;11.70;99.90;;;;;;5049371;28;20059;-67
2022/11/11 11:34:55;;;;;;;25.42;14.90;;;11.70;99.90;;;;;;5045267;28;19962;-67
2022/11/11 11:37:53;;;;;;;22.33;15.68;;;11.70;99.90;;;;;;5048865;28;20084;-67
2022/11/11 11:40:25;;;;;;;21.55;14.93;;;11.70;99.90;;;;;;5061707;28;20055;-68
2022/11/11 11:43:37;;;;;;;24.08;16.05;;;11.70;99.90;;;;;;5065822;28;20044;-67
2022/11/11 11:46:29;;;;;;;22.50;15.27;;;11.70;99.90;;;;;;5068809;28;20056;-67
2022/11/11 11:49:43;;;;;;;27.13;17.33;;;11.70;99.90;;;;;;5050362;28;20067;-67
2022/11/11 11:52:49;;;;;;;24.10;15.02;;;11.80;99.90;;;;;;5005679;28;20073;-67
2022/11/11 11:55:44;;;;;;;22.23;15.73;;;11.70;99.90;;;;;;4943249;28;20046;-67
2022/11/11 11:59:14;;;;;;;24.77;15.48;;;11.70;99.90;;;;;;5050414;28;20098;-67
2022/11/11 12:02:05;;;;;;;24.98;16.63;;;11.70;99.90;;;;;;4983178;28;20039;-67
2022/11/11 12:04:47;;;;;;;24.30;15.90;;;11.70;99.90;;;;;;5053455;28;20101;-67
2022/11/11 12:07:40;;;;;;;25.15;16.27;;;11.60;99.90;;;;;;5082875;28;20040;-67
2022/11/11 12:10:41;;;;;;;26.30;18.15;;;11.60;99.90;;;;;;5090736;28;20042;-66
2022/11/11 12:13:35;;;;;;;28.52;16.27;;;11.60;99.90;;;;;;5082908;28;20509;-67
2022/11/11 12:16:06;;;;;;;24.65;15.93;;;11.60;99.90;;;;;;5053899;28;20114;-67
2022/11/11 12:18:38;;;;;;;28.25;16.00;;;11.60;99.90;;;;;;5070740;28;20101;-67
2022/11/11 12:21:32;;;;;;;23.73;14.90;;;11.60;99.90;;;;;;5059955;28;20493;-67
2022/11/11 12:24:31;;;;;;;27.52;16.60;;;11.60;99.90;;;;;;5086775;28;20497;-68
2022/11/11 12:27:15;;;;;;;23.45;15.30;;;11.60;99.90;;;;;;5084938;28;20425;-67
2022/11/11 12:30:07;;;;;;;23.35;15.02;;;11.50;99.90;;;;;;5073599;28;20044;-68
2022/11/11 12:33:11;;;;;;;23.90;15.85;;;11.50;99.90;;;;;;5070785;28;20466;-67
2022/11/11 12:35:55;;;;;;;25.95;15.50;;;11.50;99.90;;;;;;5067816;28;20036;-67
2022/11/11 12:38:45;;;;;;;25.17;15.45;;;11.50;99.90;;;;;;5077687;28;20039;-66
2022/11/11 12:41:31;;;;;;;26.45;16.75;;;11.50;99.90;;;;;;5068678;28;20048;-67
2022/11/11 12:44:07;;;;;;;26.05;17.17;;;11.50;99.90;;;;;;5090437;28;20040;-67
2022/11/11 12:46:48;;;;;;;25.92;17.33;;;11.50;99.90;;;;;;5072064;28;20039;-67
2022/11/11 12:49:54;;;;;;;24.00;16.85;;;11.50;99.90;;;;;;5082548;28;20048;-68
2022/11/11 12:52:44;;;;;;;23.60;16.38;;;11.50;99.90;;;;;;5089620;28;20032;-68
2022/11/11 12:55:43;;;;;;;23.00;15.25;;;11.60;99.90;;;;;;5070097;28;20493;-68
2022/11/11 12:58:36;;;;;;;26.00;16.77;;;11.60;99.90;;;;;;5089774;28;20044;-68
2022/11/11 13:01:28;;;;;;;26.17;16.20;;;11.60;99.90;;;;;;5090452;28;20712;-68
2022/11/11 13:04:17;;;;;;;23.58;16.15;;;11.70;99.90;;;;;;5071872;28;20047;-67
2022/11/11 13:07:27;;;;;;;25.83;16.13;;;11.70;99.90;;;;;;5093525;28;20040;-68
2022/11/11 13:10:18;;;;;;;25.30;15.73;;;11.80;99.90;;;;;;5076922;28;20048;-68
2022/11/11 13:13:02;;;;;;;21.83;16.08;;;11.80;99.90;;;;;;5073397;28;20047;-67
2022/11/11 13:15:29;;;;;;;25.88;15.15;;;11.90;99.90;;;;;;5092185;28;20222;-68
2022/11/11 13:18:09;;;;;;;23.52;16.02;;;12.00;99.90;;;;;;5078588;28;20032;-68
2022/11/11 13:21:01;;;;;;;26.10;17.55;;;12.00;99.90;;;;;;5096132;28;20036;-68
2022/11/11 13:23:30;;;;;;;25.50;15.65;;;12.10;99.90;;;;;;5069037;28;20550;-68
2022/11/11 13:26:08;;;;;;;24.27;16.48;;;12.20;99.90;;;;;;5063592;28;20474;-68
2022/11/11 13:28:48;;;;;;;22.13;15.70;;;12.30;99.90;;;;;;5092767;28;20043;-68
2022/11/11 13:31:40;;;;;;;24.65;16.38;;;12.30;99.90;;;;;;5071532;28;20118;-68
2022/11/11 13:34:18;;;;;;;24.52;17.17;;;12.30;99.90;;;;;;5095169;28;20032;-68
2022/11/11 13:37:04;;;;;;;23.27;16.63;;;12.30;99.90;;;;;;5052777;28;20067;-68
2022/11/11 13:40:08;;;;;;;23.25;15.82;;;12.30;99.90;;;;;;5092808;28;20038;-65
2022/11/11 13:42:46;;;;;;;26.08;15.30;;;12.40;99.90;;;;;;5089212;28;20049;-67
2022/11/11 13:45:36;;;;;;;22.58;16.42;;;12.30;99.90;;;;;;5075999;28;20086;-68
2022/11/11 13:48:09;;;;;;;26.70;16.50;;;12.40;99.90;;;;;;5092345;28;20063;-68
2022/11/11 13:50:42;;;;;;;24.67;16.88;;;12.40;99.90;;;;;;5095741;28;20477;-67
2022/11/11 13:53:35;;;;;;;25.38;17.23;;;12.40;99.90;;;;;;5068570;28;20379;-67
2022/11/11 13:56:26;;;;;;;22.20;15.98;;;12.50;99.90;;;;;;5090468;28;20097;-67
2022/11/11 13:59:01;;;;;;;21.58;14.48;;;12.40;99.90;;;;;;5096646;28;20032;-67
2022/11/11 14:01:42;;;;;;;22.67;15.68;;;12.30;99.90;;;;;;5075602;28;20135;-67
2022/11/11 14:04:09;;;;;;;21.33;15.52;;;12.20;99.90;;;;;;5093138;28;20158;-66
2022/11/11 14:06:51;;;;;;;24.58;15.95;;;12.20;99.90;;;;;;5073012;28;20035;-68
2022/11/11 14:09:57;;;;;;;27.20;16.73;;;12.10;99.90;;;;;;5074884;28;20072;-68